Time;durP1;ratioP1;P1;durP2;ratioP2;P2;SDS_P1;SDS_P2;PMS_P1;PMS_P2;Temp;Humidity;BMP_temperature;BMP_pressure;BME280_temperature;BME280_humidity;BME280_pressure;Samples;Min_cycle;Max_cycle;Signal;HPM_P1;HPM_P2
2022/12/21 00:01:14;;;;;;;49.57;24.53;;;3.10;99.90;;;;;;4997485;28;21639;-68
2022/12/21 00:03:41;;;;;;;50.55;23.27;;;3.00;99.90;;;;;;5001218;28;20034;-67
2022/12/21 00:06:07;;;;;;;54.33;23.48;;;3.10;99.90;;;;;;4997526;28;20057;-67
2022/12/21 00:08:41;;;;;;;46.72;22.35;;;3.10;99.90;;;;;;4999110;28;20635;-67
2022/12/21 00:11:08;;;;;;;47.78;21.58;;;3.20;99.90;;;;;;4996856;28;20038;-67
2022/12/21 00:13:34;;;;;;;46.13;20.95;;;3.30;99.90;;;;;;4997314;28;20704;-68
2022/12/21 00:16:05;;;;;;;47.45;21.30;;;3.40;99.90;;;;;;4991656;28;20126;-66
2022/12/21 00:18:35;;;;;;;43.13;20.92;;;3.30;99.90;;;;;;4988846;28;20117;-66
2022/12/21 00:21:07;;;;;;;43.60;21.45;;;3.40;99.90;;;;;;4990602;28;20347;-66
2022/12/21 00:23:33;;;;;;;42.50;20.65;;;3.40;99.90;;;;;;4998126;28;20041;-67
2022/12/21 00:26:00;;;;;;;45.83;21.08;;;3.40;99.90;;;;;;5000747;28;20042;-67
2022/12/21 00:28:26;;;;;;;47.35;21.80;;;3.40;99.90;;;;;;4998545;28;20439;-67
2022/12/21 00:30:53;;;;;;;45.13;19.92;;;3.30;99.90;;;;;;5004154;28;20065;-67
2022/12/21 00:33:18;;;;;;;45.95;20.92;;;3.40;99.90;;;;;;5008565;28;20034;-66
2022/12/21 00:35:51;;;;;;;92.65;25.17;;;3.40;99.90;;;;;;5007984;28;20042;-66
2022/12/21 00:38:18;;;;;;;49.95;23.25;;;3.30;99.90;;;;;;5010596;28;20438;-66
2022/12/21 00:40:44;;;;;;;47.58;22.95;;;3.10;99.90;;;;;;5010514;28;20033;-66
2022/12/21 00:43:11;;;;;;;51.53;23.52;;;3.00;99.90;;;;;;5010652;28;20025;-66
2022/12/21 00:45:37;;;;;;;45.63;21.83;;;2.90;99.90;;;;;;5010303;28;20125;-67
2022/12/21 00:48:04;;;;;;;50.45;22.80;;;2.90;99.90;;;;;;5008040;28;20103;-68
2022/12/21 00:50:32;;;;;;;51.08;21.92;;;2.90;99.90;;;;;;5011207;28;20053;-66
2022/12/21 00:52:58;;;;;;;43.30;20.95;;;3.00;99.90;;;;;;5003124;28;20041;-67
2022/12/21 00:55:23;;;;;;;49.78;22.25;;;3.20;99.90;;;;;;4993411;28;20039;-66
2022/12/21 00:57:49;;;;;;;47.80;21.50;;;3.30;99.90;;;;;;4997945;28;20567;-66
2022/12/21 01:00:15;;;;;;;49.00;22.20;;;3.30;99.90;;;;;;5000578;28;20359;-68
2022/12/21 01:02:40;;;;;;;49.30;22.00;;;3.30;99.90;;;;;;5000242;28;20034;-67
2022/12/21 01:05:06;;;;;;;49.88;22.52;;;3.30;99.90;;;;;;5008592;28;20092;-66
2022/12/21 01:07:32;;;;;;;47.45;21.98;;;3.30;99.90;;;;;;5003702;28;20420;-66
2022/12/21 01:09:57;;;;;;;52.00;23.70;;;3.30;99.90;;;;;;4998018;28;20031;-64
2022/12/21 01:12:23;;;;;;;53.28;23.27;;;3.30;99.90;;;;;;5003145;28;20037;-66
2022/12/21 01:14:49;;;;;;;48.60;22.20;;;3.30;99.90;;;;;;4994561;28;20039;-66
2022/12/21 01:17:14;;;;;;;51.67;22.98;;;3.20;99.90;;;;;;5007870;28;20478;-65
2022/12/21 01:19:40;;;;;;;48.28;22.70;;;3.20;99.90;;;;;;5009610;28;20037;-65
2022/12/21 01:22:05;;;;;;;51.25;22.77;;;3.20;99.90;;;;;;4997150;28;20031;-66
2022/12/21 01:24:31;;;;;;;47.35;21.27;;;3.20;99.90;;;;;;5008709;28;20547;-65
2022/12/21 01:26:57;;;;;;;44.08;21.75;;;3.20;99.90;;;;;;5011627;28;20032;-65
2022/12/21 01:29:22;;;;;;;50.42;22.55;;;3.20;99.90;;;;;;4992943;28;20044;-66
2022/12/21 01:31:48;;;;;;;45.85;22.27;;;3.20;99.90;;;;;;5004916;28;20057;-64
2022/12/21 01:34:14;;;;;;;57.80;24.42;;;3.20;99.90;;;;;;5008475;28;20034;-66
2022/12/21 01:36:39;;;;;;;46.17;22.45;;;3.20;99.90;;;;;;5005599;28;20351;-65
2022/12/21 01:39:05;;;;;;;43.22;21.02;;;3.20;99.90;;;;;;5008372;28;20045;-65
2022/12/21 01:41:31;;;;;;;47.88;22.20;;;3.20;99.90;;;;;;5006434;28;20104;-64
2022/12/21 01:43:56;;;;;;;46.05;21.55;;;3.30;99.90;;;;;;4997406;28;20040;-66
2022/12/21 01:46:36;;;;;;;45.67;21.70;;;3.30;99.90;;;;;;5003814;28;20030;-66
2022/12/21 01:49:29;;;;;;;48.57;21.83;;;3.30;99.90;;;;;;4997843;28;20386;-65
2022/12/21 01:52:12;;;;;;;44.97;21.20;;;3.40;99.90;;;;;;5002383;28;20297;-66
2022/12/21 01:55:00;;;;;;;49.42;21.75;;;3.40;99.90;;;;;;5002204;28;20995;-65
2022/12/21 01:57:29;;;;;;;50.83;22.85;;;3.50;99.90;;;;;;5007160;28;20370;-65
2022/12/21 01:59:58;;;;;;;49.33;23.25;;;3.50;99.90;;;;;;4994540;28;20395;-65
2022/12/21 02:02:29;;;;;;;47.30;21.83;;;3.50;99.90;;;;;;5000950;28;20472;-66
2022/12/21 02:04:59;;;;;;;48.70;22.10;;;3.50;99.90;;;;;;4994602;28;20080;-64
2022/12/21 02:07:25;;;;;;;44.42;20.90;;;3.60;99.90;;;;;;4991376;28;20029;-65
2022/12/21 02:09:53;;;;;;;47.53;21.40;;;3.60;99.90;;;;;;5003277;28;20049;-65
2022/12/21 02:12:20;;;;;;;43.45;20.52;;;3.60;99.90;;;;;;4991273;28;20038;-67
2022/12/21 02:14:47;;;;;;;47.63;22.83;;;3.70;99.90;;;;;;5001869;28;20029;-66
2022/12/21 02:17:45;;;;;;;45.47;22.05;;;3.70;99.90;;;;;;5001006;28;20031;-65
2022/12/21 02:20:29;;;;;;;46.67;21.00;;;3.70;99.90;;;;;;4996983;28;20053;-66
2022/12/21 02:23:16;;;;;;;45.08;21.58;;;3.70;99.90;;;;;;5001114;28;20514;-66
2022/12/21 02:26:00;;;;;;;49.15;23.55;;;3.70;99.90;;;;;;4997131;28;20033;-65
2022/12/21 02:29:04;;;;;;;45.38;22.15;;;3.60;99.90;;;;;;4998742;28;20033;-65
2022/12/21 02:31:55;;;;;;;47.47;23.08;;;3.70;99.90;;;;;;4997119;28;20084;-64
2022/12/21 02:34:32;;;;;;;43.97;19.83;;;3.60;99.90;;;;;;4992624;28;20025;-65
2022/12/21 02:37:12;;;;;;;40.55;20.05;;;3.70;99.90;;;;;;5002178;28;20041;-66
2022/12/21 02:39:57;;;;;;;47.50;21.38;;;3.80;99.90;;;;;;5006526;28;20039;-65
2022/12/21 02:45:23;;;;;;;47.25;21.80;;;3.90;99.90;;;;;;4989552;28;20053;-66
2022/12/21 02:47:55;;;;;;;46.40;21.77;;;3.80;99.90;;;;;;5001878;28;20057;-65
2022/12/21 02:50:29;;;;;;;54.72;23.88;;;3.80;99.90;;;;;;4996289;28;20029;-65
2022/12/21 02:53:03;;;;;;;45.75;21.52;;;3.80;99.90;;;;;;5005930;28;20049;-65
2022/12/21 02:55:29;;;;;;;38.83;19.42;;;3.80;99.90;;;;;;5004481;28;20045;-66
2022/12/21 02:58:15;;;;;;;40.35;20.83;;;3.80;99.90;;;;;;4990630;28;20046;-66
2022/12/21 03:01:04;;;;;;;43.45;21.35;;;3.80;99.90;;;;;;4994941;28;20129;-63
2022/12/21 03:03:57;;;;;;;43.70;20.00;;;3.90;99.90;;;;;;4989113;28;20034;-65
2022/12/21 03:06:56;;;;;;;44.97;20.80;;;3.90;99.90;;;;;;4989657;28;20038;-66
2022/12/21 03:09:34;;;;;;;44.65;21.15;;;4.00;99.90;;;;;;4989594;28;20372;-65
2022/12/21 03:12:12;;;;;;;40.45;20.10;;;4.00;99.90;;;;;;4988829;28;20450;-65
2022/12/21 03:14:50;;;;;;;41.55;20.70;;;4.00;99.90;;;;;;4999757;28;20030;-65
2022/12/21 03:17:44;;;;;;;38.92;17.63;;;4.10;99.90;;;;;;5001843;28;20432;-65
2022/12/21 03:20:18;;;;;;;39.25;17.80;;;4.20;99.90;;;;;;5011970;28;20061;-64
2022/12/21 03:23:02;;;;;;;37.60;18.17;;;4.10;99.90;;;;;;5007230;28;20113;-65
2022/12/21 03:25:38;;;;;;;41.97;19.73;;;4.10;99.90;;;;;;5000321;28;20117;-65
2022/12/21 03:28:08;;;;;;;54.28;21.65;;;4.10;99.90;;;;;;5006684;28;20034;-66
2022/12/21 03:30:42;;;;;;;55.85;23.27;;;4.00;99.90;;;;;;5008094;28;20037;-67
2022/12/21 03:33:14;;;;;;;43.83;21.17;;;3.90;99.90;;;;;;5007723;28;20037;-65
2022/12/21 03:35:46;;;;;;;48.05;21.60;;;3.90;99.90;;;;;;5009316;28;20045;-64
2022/12/21 03:38:40;;;;;;;47.25;21.58;;;3.80;99.90;;;;;;4989883;28;20049;-64
2022/12/21 03:41:13;;;;;;;46.80;21.00;;;3.80;99.90;;;;;;4983739;28;20088;-65
2022/12/21 03:43:42;;;;;;;45.65;20.30;;;3.80;99.90;;;;;;5008272;28;20030;-66
2022/12/21 03:46:21;;;;;;;44.85;19.83;;;3.80;99.90;;;;;;5008266;28;20482;-66
2022/12/21 03:48:51;;;;;;;39.40;18.92;;;3.80;99.90;;;;;;5008416;28;20058;-66
2022/12/21 03:51:32;;;;;;;37.20;17.95;;;4.00;99.90;;;;;;5023216;28;20080;-64
2022/12/21 03:54:14;;;;;;;48.38;21.85;;;4.30;99.90;;;;;;5002798;28;20065;-66
2022/12/21 03:56:41;;;;;;;43.08;20.55;;;4.40;99.90;;;;;;5002173;28;20395;-66
2022/12/21 03:59:09;;;;;;;44.03;21.00;;;4.40;99.90;;;;;;5001496;28;20126;-65
2022/12/21 04:02:16;;;;;;;41.22;20.05;;;4.40;99.90;;;;;;4998948;28;20045;-65
2022/12/21 04:04:44;;;;;;;38.47;19.58;;;4.40;99.90;;;;;;4997740;28;20075;-66
2022/12/21 04:07:12;;;;;;;42.92;19.88;;;4.40;99.90;;;;;;5007712;28;20040;-64
2022/12/21 04:09:38;;;;;;;34.30;16.40;;;4.40;99.90;;;;;;4993252;28;20475;-65
2022/12/21 04:14:49;;;;;;;43.65;21.58;;;4.60;99.90;;;;;;4992939;28;20045;-65
2022/12/21 04:17:15;;;;;;;38.85;18.67;;;4.70;99.90;;;;;;5004820;28;20052;-64
2022/12/21 04:19:58;;;;;;;37.50;17.63;;;4.60;99.90;;;;;;4995201;28;20050;-66
2022/12/21 04:28:10;;;;;;;42.53;19.83;;;4.60;99.90;;;;;;5007934;28;20037;-64
2022/12/21 04:30:41;;;;;;;39.75;18.52;;;4.50;99.90;;;;;;5002074;28;20690;-65
2022/12/21 04:33:09;;;;;;;38.78;19.42;;;4.40;99.90;;;;;;4995943;28;20371;-66
2022/12/21 04:35:35;;;;;;;40.45;18.55;;;4.30;99.90;;;;;;5002730;28;20450;-66
2022/12/21 04:38:01;;;;;;;40.33;18.45;;;4.20;99.90;;;;;;4989099;28;20379;-65
2022/12/21 04:40:27;;;;;;;40.90;19.50;;;4.10;99.90;;;;;;4991836;28;20383;-66
2022/12/21 04:42:53;;;;;;;45.33;20.15;;;4.10;99.90;;;;;;4999546;28;20041;-66
2022/12/21 04:45:19;;;;;;;37.75;18.38;;;4.10;99.90;;;;;;5004037;28;20033;-65
2022/12/21 04:47:45;;;;;;;39.72;18.85;;;4.00;99.90;;;;;;5000059;28;20034;-65
2022/12/21 04:50:11;;;;;;;42.05;19.20;;;3.90;99.90;;;;;;4990614;28;20026;-65
2022/12/21 04:52:37;;;;;;;39.20;18.50;;;3.90;99.90;;;;;;4988033;28;20035;-65
2022/12/21 04:55:03;;;;;;;32.70;16.23;;;3.90;99.90;;;;;;4988467;28;20034;-66
2022/12/21 04:57:29;;;;;;;34.97;17.75;;;4.00;99.90;;;;;;4987357;28;20034;-65
2022/12/21 04:59:55;;;;;;;36.30;17.20;;;4.10;99.90;;;;;;4988811;28;20133;-67
2022/12/21 05:02:21;;;;;;;41.08;18.67;;;4.10;99.90;;;;;;5007618;28;20105;-66
2022/12/21 05:04:47;;;;;;;37.13;16.05;;;4.20;99.90;;;;;;5005210;28;20026;-67
2022/12/21 05:07:12;;;;;;;36.88;16.20;;;4.30;99.90;;;;;;4997091;28;20037;-66
2022/12/21 05:09:38;;;;;;;35.60;16.13;;;4.30;99.90;;;;;;5027939;28;20033;-66
2022/12/21 05:12:04;;;;;;;31.92;15.30;;;4.40;99.90;;;;;;5030318;28;20036;-67
2022/12/21 05:14:29;;;;;;;30.58;15.57;;;4.30;99.90;;;;;;5028855;28;20048;-69
2022/12/21 05:16:55;;;;;;;34.70;15.77;;;4.40;99.90;;;;;;5031204;28;20061;-66
2022/12/21 05:19:21;;;;;;;39.10;17.80;;;4.40;99.90;;;;;;5013120;28;20066;-65
2022/12/21 05:21:46;;;;;;;37.75;17.45;;;4.40;99.90;;;;;;5030233;28;20409;-66
2022/12/21 05:24:12;;;;;;;33.70;16.80;;;4.40;99.90;;;;;;5031008;28;20049;-66
2022/12/21 05:26:38;;;;;;;33.58;16.27;;;4.30;99.90;;;;;;5030707;28;20785;-66
2022/12/21 05:29:04;;;;;;;31.50;14.88;;;4.30;99.90;;;;;;5009320;28;20037;-68
2022/12/21 05:31:30;;;;;;;32.17;15.00;;;4.30;99.90;;;;;;5010756;28;20112;-66
2022/12/21 05:33:55;;;;;;;33.30;16.25;;;4.40;99.90;;;;;;5011824;28;20108;-66
2022/12/21 05:36:21;;;;;;;33.58;16.50;;;4.50;99.90;;;;;;5011756;28;20022;-66
2022/12/21 05:38:47;;;;;;;32.72;15.77;;;4.50;99.90;;;;;;4997576;28;20100;-65
2022/12/21 05:41:15;;;;;;;31.13;15.57;;;4.40;99.90;;;;;;5009450;28;20033;-66
2022/12/21 05:43:40;;;;;;;36.85;16.23;;;4.40;99.90;;;;;;5030416;28;20025;-65
2022/12/21 05:46:09;;;;;;;31.02;15.50;;;4.50;99.90;;;;;;5014343;28;20033;-67
2022/12/21 05:48:35;;;;;;;29.73;14.60;;;4.50;99.90;;;;;;5008537;28;20057;-67
2022/12/21 05:51:12;;;;;;;32.15;15.20;;;4.40;99.90;;;;;;5010035;28;20033;-66
2022/12/21 05:53:43;;;;;;;29.95;14.27;;;4.40;99.90;;;;;;5009739;28;20034;-65
2022/12/21 05:56:09;;;;;;;32.70;14.75;;;4.40;99.90;;;;;;5011009;28;20482;-67
2022/12/21 05:58:35;;;;;;;32.65;14.35;;;4.40;99.90;;;;;;5008389;28;20080;-69
2022/12/21 06:01:03;;;;;;;36.33;16.42;;;4.40;99.90;;;;;;5002248;28;20034;-67
2022/12/21 06:03:29;;;;;;;31.10;15.65;;;4.50;99.90;;;;;;5015642;28;20602;-66
2022/12/21 06:06:04;;;;;;;34.33;15.70;;;4.50;99.90;;;;;;5009314;28;20029;-66
2022/12/21 06:08:31;;;;;;;30.45;14.35;;;4.60;99.90;;;;;;5010474;28;20112;-66
2022/12/21 06:11:01;;;;;;;30.02;13.73;;;4.60;99.90;;;;;;5006165;28;20039;-69
2022/12/21 06:13:27;;;;;;;27.08;13.30;;;4.70;99.90;;;;;;5009655;28;20038;-66
2022/12/21 06:15:52;;;;;;;28.45;13.45;;;4.80;99.90;;;;;;5009782;28;20354;-66
2022/12/21 06:18:18;;;;;;;34.10;13.57;;;4.90;99.90;;;;;;5006965;28;20034;-65
2022/12/21 06:20:50;;;;;;;27.38;13.73;;;5.00;99.90;;;;;;5007885;28;20049;-66
2022/12/21 06:23:16;;;;;;;35.33;15.73;;;5.10;99.90;;;;;;5010335;28;20050;-67
2022/12/21 06:25:41;;;;;;;34.22;15.93;;;5.20;99.90;;;;;;5009917;28;20038;-65
2022/12/21 06:28:07;;;;;;;25.92;13.43;;;5.30;99.90;;;;;;5010660;28;20471;-68
2022/12/21 06:30:33;;;;;;;24.90;11.98;;;5.40;99.90;;;;;;5010457;28;20033;-66
2022/12/21 06:32:58;;;;;;;28.00;14.27;;;5.50;99.90;;;;;;5017735;28;20378;-67
2022/12/21 06:35:24;;;;;;;25.70;12.07;;;5.70;99.90;;;;;;5022878;28;20103;-68
2022/12/21 06:37:49;;;;;;;25.40;11.18;;;5.80;99.90;;;;;;5009630;28;20030;-69
2022/12/21 06:40:15;;;;;;;22.65;10.63;;;5.90;99.90;;;;;;5010324;28;20057;-67
2022/12/21 06:42:41;;;;;;;23.02;11.07;;;6.10;99.90;;;;;;5009333;28;20030;-67
2022/12/21 06:45:07;;;;;;;23.73;9.98;;;6.30;99.90;;;;;;5008729;28;20057;-66
2022/12/21 06:47:32;;;;;;;19.10;8.65;;;6.40;99.90;;;;;;5010317;28;20113;-66
2022/12/21 06:49:58;;;;;;;22.15;10.50;;;6.60;99.90;;;;;;5008247;28;20221;-66
2022/12/21 06:52:24;;;;;;;18.85;9.07;;;6.70;99.90;;;;;;5009793;28;20041;-66
2022/12/21 06:54:49;;;;;;;19.75;8.38;;;6.70;99.90;;;;;;5009386;28;20037;-66
2022/12/21 06:57:15;;;;;;;17.05;8.25;;;6.70;99.90;;;;;;5041904;28;20438;-68
2022/12/21 06:59:41;;;;;;;18.15;8.48;;;6.90;99.90;;;;;;5023602;28;20038;-68
2022/12/21 07:02:09;;;;;;;17.50;8.25;;;6.90;99.90;;;;;;5008295;28;20081;-67
2022/12/21 07:04:35;;;;;;;18.30;8.80;;;6.90;99.90;;;;;;5009199;28;20044;-67
2022/12/21 07:07:01;;;;;;;15.68;7.47;;;6.90;99.90;;;;;;5016475;28;20382;-67
2022/12/21 07:09:26;;;;;;;14.23;7.82;;;6.90;99.90;;;;;;5009840;28;20038;-66
2022/12/21 07:11:52;;;;;;;14.50;7.47;;;7.00;99.90;;;;;;5008906;28;20104;-68
2022/12/21 07:14:18;;;;;;;14.68;7.60;;;7.10;99.90;;;;;;5006894;28;20045;-69
2022/12/21 07:16:44;;;;;;;13.70;7.10;;;7.10;99.90;;;;;;5000734;28;20027;-68
2022/12/21 07:19:09;;;;;;;16.02;7.40;;;7.20;99.90;;;;;;5001629;28;20127;-69
2022/12/21 07:21:35;;;;;;;15.13;7.50;;;7.20;99.90;;;;;;5007976;28;20030;-68
2022/12/21 07:24:01;;;;;;;17.27;7.20;;;7.10;99.90;;;;;;5008794;28;20129;-68
2022/12/21 07:26:26;;;;;;;14.07;7.93;;;7.10;99.90;;;;;;5008567;28;20038;-66
2022/12/21 07:28:54;;;;;;;12.25;6.65;;;6.90;99.90;;;;;;5007642;28;20091;-68
2022/12/21 07:31:23;;;;;;;44.50;21.80;;;6.90;99.90;;;;;;5008477;28;20486;-67
2022/12/21 07:33:49;;;;;;;27.67;14.02;;;6.60;99.90;;;;;;5008176;28;20582;-67
2022/12/21 07:36:15;;;;;;;23.35;11.05;;;6.50;99.90;;;;;;5007568;28;20494;-68
2022/12/21 07:38:41;;;;;;;43.05;18.08;;;6.40;99.90;;;;;;5008011;28;20034;-69
2022/12/21 07:41:10;;;;;;;27.63;13.00;;;6.50;99.90;;;;;;5008348;28;20033;-68
2022/12/21 07:43:37;;;;;;;30.25;15.05;;;6.50;99.90;;;;;;5008612;28;20033;-65
2022/12/21 07:46:03;;;;;;;21.40;10.82;;;6.40;99.90;;;;;;5007660;28;20030;-67
2022/12/21 07:48:29;;;;;;;22.35;11.05;;;6.50;99.90;;;;;;5007715;28;20467;-66
2022/12/21 07:50:55;;;;;;;21.40;10.60;;;6.50;99.90;;;;;;5005967;28;20053;-68
2022/12/21 07:53:21;;;;;;;18.95;9.43;;;6.50;99.90;;;;;;5004368;28;20040;-67
2022/12/21 07:55:47;;;;;;;17.80;8.55;;;6.70;99.90;;;;;;5038782;28;20033;-67
2022/12/21 07:58:13;;;;;;;15.18;7.70;;;6.70;99.90;;;;;;5006653;28;20041;-68
2022/12/21 08:00:39;;;;;;;14.68;7.43;;;6.80;99.90;;;;;;4999949;28;20025;-68
2022/12/21 08:03:06;;;;;;;15.32;7.32;;;6.80;99.90;;;;;;4997027;28;20026;-68
2022/12/21 08:05:32;;;;;;;11.38;5.93;;;6.90;99.90;;;;;;5003308;28;20121;-66
2022/12/21 08:07:58;;;;;;;9.65;5.35;;;6.90;99.90;;;;;;4998043;28;20030;-65
2022/12/21 08:10:24;;;;;;;10.63;5.88;;;7.00;99.90;;;;;;5007911;28;20520;-68
2022/12/21 08:12:50;;;;;;;18.13;7.90;;;7.10;99.90;;;;;;4998482;28;20088;-66
2022/12/21 08:15:16;;;;;;;12.00;6.30;;;6.80;99.90;;;;;;4994225;28;20026;-68
2022/12/21 08:17:41;;;;;;;11.93;6.03;;;6.80;99.90;;;;;;4994683;28;20022;-69
2022/12/21 08:20:08;;;;;;;13.07;6.68;;;6.90;99.90;;;;;;5007737;28;20053;-67
2022/12/21 08:22:33;;;;;;;17.23;8.13;;;7.00;99.90;;;;;;4998348;28;20790;-69
2022/12/21 08:24:59;;;;;;;14.35;7.63;;;7.10;99.90;;;;;;4991332;28;20045;-70
2022/12/21 08:27:25;;;;;;;12.25;6.82;;;7.30;99.90;;;;;;4989314;28;20045;-67
2022/12/21 08:29:50;;;;;;;19.20;7.93;;;7.40;99.90;;;;;;5001335;28;20038;-67
2022/12/21 08:32:16;;;;;;;15.95;7.15;;;7.40;99.90;;;;;;5004487;28;20030;-67
2022/12/21 08:34:41;;;;;;;16.95;7.55;;;7.50;99.90;;;;;;5007063;28;20022;-67
2022/12/21 08:37:07;;;;;;;13.40;7.32;;;7.50;99.90;;;;;;5005738;28;20029;-67
2022/12/21 08:39:33;;;;;;;14.88;6.45;;;7.50;99.90;;;;;;5005962;28;20565;-67
2022/12/21 08:41:58;;;;;;;14.20;7.20;;;7.50;99.90;;;;;;4991879;28;20034;-66
2022/12/21 08:44:24;;;;;;;15.85;7.25;;;7.60;99.90;;;;;;4994220;28;20030;-67
2022/12/21 08:46:50;;;;;;;18.65;9.45;;;7.60;99.90;;;;;;5011987;28;20033;-69
2022/12/21 08:49:15;;;;;;;16.05;8.07;;;7.60;99.90;;;;;;5008895;28;20029;-68
2022/12/21 08:51:41;;;;;;;18.40;8.15;;;7.50;99.90;;;;;;5014208;28;20025;-68
2022/12/21 08:54:07;;;;;;;16.20;8.15;;;7.60;99.90;;;;;;5015191;28;20117;-66
2022/12/21 08:56:35;;;;;;;17.45;8.07;;;7.60;99.90;;;;;;5012329;28;20037;-66
2022/12/21 08:59:07;;;;;;;19.52;7.40;;;7.70;99.90;;;;;;5008869;28;20033;-66
2022/12/21 09:01:34;;;;;;;12.20;6.00;;;7.70;99.90;;;;;;5011065;28;20037;-68
2022/12/21 09:04:01;;;;;;;19.25;6.40;;;7.80;99.90;;;;;;5008273;28;20041;-69
2022/12/21 09:06:27;;;;;;;13.77;6.70;;;7.90;99.90;;;;;;5008712;28;20523;-68
2022/12/21 09:08:53;;;;;;;14.13;6.72;;;8.00;99.90;;;;;;5002627;28;20048;-69
2022/12/21 09:11:20;;;;;;;12.38;6.53;;;8.00;99.90;;;;;;4995807;28;20546;-67
2022/12/21 09:13:46;;;;;;;17.48;6.38;;;8.00;99.90;;;;;;4991942;28;20500;-69
2022/12/21 09:16:12;;;;;;;16.08;7.15;;;8.00;99.90;;;;;;4999343;28;20084;-68
2022/12/21 09:18:37;;;;;;;17.05;7.82;;;8.00;99.90;;;;;;5011885;28;20069;-66
2022/12/21 09:21:03;;;;;;;15.35;7.55;;;8.00;99.90;;;;;;5009222;28;20030;-66
2022/12/21 09:23:29;;;;;;;13.85;7.00;;;7.90;99.90;;;;;;4993817;28;20116;-67
2022/12/21 09:25:54;;;;;;;15.18;7.18;;;7.90;99.90;;;;;;5011025;28;20120;-69
2022/12/21 09:28:21;;;;;;;15.05;7.07;;;7.90;99.90;;;;;;5030375;28;20543;-69
2022/12/21 09:30:47;;;;;;;13.02;6.53;;;7.90;99.90;;;;;;5010791;28;20128;-68
2022/12/21 09:33:13;;;;;;;15.98;6.30;;;7.90;99.90;;;;;;5009304;28;20498;-68
2022/12/21 09:35:38;;;;;;;11.88;5.30;;;7.90;99.90;;;;;;5007431;28;20033;-70
2022/12/21 09:38:05;;;;;;;14.13;6.10;;;8.00;99.90;;;;;;5007281;28;20053;-67
2022/12/21 09:40:32;;;;;;;11.30;5.28;;;8.00;99.90;;;;;;5005228;28;20036;-68
2022/12/21 09:43:00;;;;;;;13.57;6.22;;;8.10;99.90;;;;;;5007385;28;20038;-67
2022/12/21 09:45:39;;;;;;;12.68;6.20;;;8.20;99.90;;;;;;5002785;28;20422;-69
2022/12/21 09:48:13;;;;;;;15.60;6.35;;;8.20;99.90;;;;;;5010156;28;20231;-70
2022/12/21 09:51:09;;;;;;;15.95;7.18;;;8.20;99.90;;;;;;5009436;28;20040;-69
2022/12/21 09:54:00;;;;;;;13.07;6.82;;;8.20;99.90;;;;;;5010882;28;20049;-69
2022/12/21 09:56:29;;;;;;;12.82;5.60;;;8.10;99.90;;;;;;5023834;28;20033;-68
2022/12/21 09:58:57;;;;;;;14.20;6.47;;;8.20;99.90;;;;;;5000308;28;20049;-69
2022/12/21 10:01:28;;;;;;;12.48;6.45;;;8.20;99.90;;;;;;5001277;28;20034;-69
2022/12/21 10:04:15;;;;;;;13.15;7.10;;;8.30;99.90;;;;;;5004671;28;20059;-71
2022/12/21 10:06:50;;;;;;;11.38;5.72;;;8.40;99.90;;;;;;5003436;28;20022;-69
2022/12/21 10:09:18;;;;;;;12.95;6.20;;;8.40;99.90;;;;;;5008512;28;20066;-69
2022/12/21 10:12:05;;;;;;;15.73;6.75;;;8.50;99.90;;;;;;5010526;28;20048;-68
2022/12/21 10:14:57;;;;;;;11.82;5.80;;;8.50;99.90;;;;;;5009872;28;20030;-69
2022/12/21 10:17:26;;;;;;;11.85;5.18;;;8.50;99.90;;;;;;5002971;28;20038;-69
2022/12/21 10:20:06;;;;;;;9.93;5.25;;;8.60;99.90;;;;;;5003656;28;20048;-71
2022/12/21 10:22:37;;;;;;;9.55;5.53;;;8.60;99.90;;;;;;5008894;28;20061;-70
2022/12/21 10:25:18;;;;;;;14.27;5.68;;;8.60;99.90;;;;;;4996444;28;20038;-69
2022/12/21 10:28:04;;;;;;;10.38;5.70;;;8.70;99.90;;;;;;5000061;28;20023;-70
2022/12/21 10:30:31;;;;;;;11.30;6.13;;;8.70;99.90;;;;;;4994509;28;20478;-69
2022/12/21 10:32:59;;;;;;;11.88;5.78;;;8.70;99.90;;;;;;4999453;28;20034;-67
2022/12/21 10:35:38;;;;;;;11.35;5.97;;;8.70;99.90;;;;;;4993046;28;20724;-68
2022/12/21 10:38:14;;;;;;;12.43;6.57;;;8.70;99.90;;;;;;5006371;28;20076;-68
2022/12/21 10:40:43;;;;;;;15.57;8.70;;;8.80;99.90;;;;;;4996790;28;20126;-70
2022/12/21 10:43:11;;;;;;;16.00;6.95;;;8.80;99.90;;;;;;4989849;28;20054;-71
2022/12/21 10:45:37;;;;;;;12.52;6.43;;;8.70;99.90;;;;;;5010275;28;20034;-70
2022/12/21 10:48:03;;;;;;;11.95;6.45;;;8.70;99.90;;;;;;5008337;28;20034;-69
2022/12/21 10:50:33;;;;;;;15.55;7.07;;;8.80;99.90;;;;;;5004607;28;20087;-66
2022/12/21 10:53:18;;;;;;;9.80;5.72;;;8.80;99.90;;;;;;5000655;28;20040;-67
2022/12/21 10:55:44;;;;;;;14.40;5.57;;;9.00;99.90;;;;;;4999563;28;20762;-67
2022/12/21 10:58:18;;;;;;;15.18;5.43;;;9.10;99.90;;;;;;4989453;28;20114;-68
2022/12/21 11:00:59;;;;;;;13.15;6.07;;;9.10;99.90;;;;;;4994924;28;20471;-68
2022/12/21 11:03:29;;;;;;;;;;;9.20;99.90;;;;;;5007432;28;20109;-69
2022/12/21 11:05:56;;;;;;;13.30;5.95;;;9.40;99.90;;;;;;4998580;28;20333;-67
2022/12/21 11:08:31;;;;;;;12.88;5.75;;;9.50;99.90;;;;;;5039003;28;20856;-67
2022/12/21 11:11:01;;;;;;;8.82;4.90;;;9.40;99.90;;;;;;4996171;28;20031;-66
2022/12/21 11:13:29;;;;;;;12.73;5.00;;;9.40;99.90;;;;;;4996571;28;20029;-68
2022/12/21 11:16:10;;;;;;;10.48;5.10;;;9.30;99.90;;;;;;5003994;28;20096;-68
2022/12/21 11:18:43;;;;;;;12.77;5.72;;;9.40;99.90;;;;;;5007646;28;20513;-67
2022/12/21 11:21:38;;;;;;;12.63;5.75;;;9.30;99.90;;;;;;5014569;28;20037;-66
2022/12/21 11:24:11;;;;;;;14.13;6.47;;;9.30;99.90;;;;;;5002428;28;20096;-68
2022/12/21 11:27:06;;;;;;;10.43;5.93;;;9.20;99.90;;;;;;5003680;28;20034;-67
2022/12/21 11:29:45;;;;;;;11.52;5.32;;;9.30;99.90;;;;;;5021927;28;20103;-70
2022/12/21 11:32:13;;;;;;;9.27;5.43;;;9.30;99.90;;;;;;5006222;28;20050;-66
2022/12/21 11:34:41;;;;;;;12.88;6.22;;;9.30;99.90;;;;;;5020071;28;20477;-65
2022/12/21 11:37:26;;;;;;;13.82;6.03;;;9.30;99.90;;;;;;5000597;28;20484;-65
2022/12/21 11:39:55;;;;;;;9.50;5.72;;;9.30;99.90;;;;;;4993548;28;20038;-68
2022/12/21 11:42:23;;;;;;;13.38;5.38;;;9.30;99.90;;;;;;5009650;28;20092;-68
2022/12/21 11:44:50;;;;;;;14.75;5.72;;;9.30;99.90;;;;;;4999396;28;20038;-66
2022/12/21 11:47:54;;;;;;;13.70;5.53;;;9.20;99.90;;;;;;5005153;28;20037;-65
2022/12/21 11:50:49;;;;;;;13.57;7.00;;;9.20;99.90;;;;;;5003782;28;20057;-69
2022/12/21 11:53:37;;;;;;;15.20;6.65;;;9.30;99.90;;;;;;5002807;28;20076;-69
2022/12/21 11:56:25;;;;;;;14.57;6.38;;;9.30;99.90;;;;;;4992633;28;20037;-69
2022/12/21 11:58:56;;;;;;;10.15;5.63;;;9.30;99.90;;;;;;5008300;28;20052;-68
2022/12/21 12:01:48;;;;;;;12.75;5.65;;;9.40;99.90;;;;;;5006822;28;20678;-67
2022/12/21 12:04:25;;;;;;;11.13;6.00;;;9.40;99.90;;;;;;4991687;28;20038;-68
2022/12/21 12:07:03;;;;;;;12.65;6.05;;;9.50;99.90;;;;;;5007946;28;20172;-69
2022/12/21 12:09:53;;;;;;;10.73;5.55;;;9.60;99.90;;;;;;5004179;28;20502;-68
2022/12/21 12:12:40;;;;;;;10.82;5.60;;;9.60;99.90;;;;;;4992479;28;20463;-68
2022/12/21 12:15:18;;;;;;;9.95;5.55;;;9.70;99.90;;;;;;5004259;28;20027;-66
2022/12/21 12:18:06;;;;;;;10.55;5.80;;;9.70;99.90;;;;;;5004859;28;20030;-65
2022/12/21 12:20:43;;;;;;;9.82;4.88;;;9.70;99.90;;;;;;5005040;28;20470;-67
2022/12/21 12:23:09;;;;;;;10.32;5.10;;;9.80;99.90;;;;;;5007791;28;20111;-66
2022/12/21 12:26:01;;;;;;;11.30;5.45;;;9.90;99.90;;;;;;5005963;28;20453;-68
2022/12/21 12:28:38;;;;;;;8.15;5.15;;;9.80;99.90;;;;;;5006709;28;20037;-65
2022/12/21 12:31:25;;;;;;;9.18;5.22;;;9.80;99.90;;;;;;5006393;28;20061;-68
2022/12/21 12:34:14;;;;;;;7.97;4.50;;;9.80;99.90;;;;;;5003532;28;20098;-64
2022/12/21 12:37:09;;;;;;;7.88;4.28;;;9.80;99.90;;;;;;4989722;28;20040;-66
2022/12/21 12:40:02;;;;;;;9.35;4.93;;;9.70;99.90;;;;;;5011087;28;20038;-67
2022/12/21 12:42:33;;;;;;;7.75;4.57;;;9.60;99.90;;;;;;5006773;28;20026;-67
2022/12/21 12:45:23;;;;;;;12.15;5.15;;;9.60;99.90;;;;;;4987584;28;20498;-67
2022/12/21 12:48:10;;;;;;;9.52;4.93;;;9.60;99.90;;;;;;5006727;28;20034;-67
2022/12/21 12:50:44;;;;;;;9.98;4.93;;;9.60;99.90;;;;;;5000775;28;20045;-64
2022/12/21 12:53:22;;;;;;;10.25;4.22;;;9.80;99.90;;;;;;4988239;28;20520;-66
2022/12/21 12:55:52;;;;;;;7.38;3.92;;;9.90;99.90;;;;;;5008211;28;20514;-65
2022/12/21 12:58:37;;;;;;;8.70;4.00;;;9.90;99.90;;;;;;5006043;28;20038;-68
2022/12/21 13:01:06;;;;;;;8.48;4.10;;;9.90;99.90;;;;;;5012903;28;20030;-67
2022/12/21 13:03:35;;;;;;;7.00;4.38;;;9.90;99.90;;;;;;5009700;28;20145;-65
2022/12/21 13:06:27;;;;;;;8.00;4.35;;;9.90;99.90;;;;;;4999685;28;20112;-66
2022/12/21 13:09:05;;;;;;;8.85;4.40;;;9.90;99.90;;;;;;5000087;28;20045;-68
2022/12/21 13:11:40;;;;;;;7.13;4.18;;;9.90;99.90;;;;;;5007063;28;20105;-66
2022/12/21 13:14:26;;;;;;;8.38;4.40;;;9.90;99.90;;;;;;5007396;28;20491;-66
2022/12/21 13:17:10;;;;;;;7.22;4.05;;;9.90;99.90;;;;;;4999733;28;20061;-69